Time;durP1;ratioP1;P1;durP2;ratioP2;P2;SDS_P1;SDS_P2;PMS_P1;PMS_P2;Temp;Humidity;BMP_temperature;BMP_pressure;BME280_temperature;BME280_humidity;BME280_pressure;Samples;Min_cycle;Max_cycle;Signal;HPM_P1;HPM_P2
2022/08/24 00:00:54;;;;;;;2.83;1.17;;;20.00;62.20;;;;;;5034685;28;20037;-83
2022/08/24 00:03:19;;;;;;;3.50;1.25;;;19.90;62.70;;;;;;5040618;28;20053;-83
2022/08/24 00:05:46;;;;;;;3.17;1.13;;;19.80;62.90;;;;;;5041560;28;20033;-82
2022/08/24 00:08:11;;;;;;;4.40;1.42;;;19.70;63.80;;;;;;5042302;28;20025;-83
2022/08/24 00:10:37;;;;;;;6.95;1.30;;;19.60;63.80;;;;;;5041500;28;20056;-83
2022/08/24 00:13:03;;;;;;;3.90;1.60;;;19.60;64.00;;;;;;5041791;28;20033;-82
2022/08/24 00:15:28;;;;;;;4.18;1.10;;;19.60;64.50;;;;;;5037783;28;20108;-83
2022/08/24 00:17:54;;;;;;;2.65;1.20;;;19.50;64.40;;;;;;5037275;28;20026;-83
2022/08/24 00:20:19;;;;;;;5.65;1.50;;;19.40;64.80;;;;;;5037374;28;20057;-83
2022/08/24 00:22:45;;;;;;;2.85;1.30;;;19.50;64.90;;;;;;5040561;28;20056;-83
2022/08/24 00:25:12;;;;;;;4.72;1.50;;;19.40;65.00;;;;;;5040194;28;20056;-82
2022/08/24 00:27:38;;;;;;;5.38;1.48;;;19.30;65.20;;;;;;5035619;28;20319;-83
2022/08/24 00:30:07;;;;;;;4.30;1.40;;;19.30;65.30;;;;;;5035283;28;20025;-82
2022/08/24 00:32:32;;;;;;;5.82;1.73;;;19.30;65.20;;;;;;5043878;28;20082;-83
2022/08/24 00:34:58;;;;;;;4.35;1.52;;;19.20;65.70;;;;;;5042058;28;20080;-82
2022/08/24 00:37:24;;;;;;;3.38;1.20;;;19.30;66.10;;;;;;5039363;28;20033;-83
2022/08/24 00:39:49;;;;;;;3.42;1.23;;;19.20;65.70;;;;;;5038378;28;20040;-83
2022/08/24 00:42:15;;;;;;;7.70;1.48;;;19.10;66.10;;;;;;5037408;28;20021;-84
2022/08/24 00:44:40;;;;;;;3.33;1.35;;;19.00;66.40;;;;;;5036414;28;20067;-83
2022/08/24 00:47:16;;;;;;;4.45;1.42;;;19.00;66.70;;;;;;5040205;28;20057;-82
2022/08/24 00:49:57;;;;;;;4.03;1.42;;;18.90;67.10;;;;;;5041024;28;20025;-83
2022/08/24 00:52:28;;;;;;;4.50;1.40;;;18.90;67.10;;;;;;5033716;28;20027;-82
2022/08/24 00:55:07;;;;;;;3.95;1.40;;;18.90;67.40;;;;;;5036634;28;20112;-83
2022/08/24 00:57:37;;;;;;;4.45;1.50;;;18.80;67.60;;;;;;5032358;28;20080;-82
2022/08/24 01:00:14;;;;;;;3.92;1.77;;;18.80;67.30;;;;;;5036728;28;20049;-83
2022/08/24 01:02:43;;;;;;;3.88;1.30;;;18.80;67.60;;;;;;5035880;28;20113;-83
2022/08/24 01:05:11;;;;;;;4.80;1.55;;;18.80;67.80;;;;;;5037209;28;20108;-83
2022/08/24 01:07:40;;;;;;;3.33;1.40;;;18.70;67.90;;;;;;5041357;28;20032;-81
2022/08/24 01:10:12;;;;;;;5.40;1.17;;;18.70;68.10;;;;;;5037864;28;20025;-81
2022/08/24 01:12:42;;;;;;;2.30;1.25;;;18.70;68.20;;;;;;5034281;28;20052;-81
2022/08/24 01:15:09;;;;;;;3.30;1.27;;;18.70;68.20;;;;;;5036881;28;21727;-81
2022/08/24 01:20:22;;;;;;;4.30;1.50;;;18.60;68.70;;;;;;5030852;28;20052;-81
2022/08/24 01:23:12;;;;;;;4.10;1.42;;;18.50;68.80;;;;;;5043526;28;20029;-82
2022/08/24 01:25:42;;;;;;;6.07;1.17;;;18.50;69.10;;;;;;5039188;28;20036;-81
2022/08/24 01:28:12;;;;;;;5.63;1.67;;;18.60;68.80;;;;;;5030958;28;20037;-81
2022/08/24 01:30:37;;;;;;;4.65;1.67;;;18.60;68.90;;;;;;5036871;28;20036;-82
2022/08/24 01:33:06;;;;;;;2.10;1.27;;;18.60;68.70;;;;;;5038961;28;20481;-82
2022/08/24 01:35:34;;;;;;;4.35;1.60;;;18.60;68.70;;;;;;5036375;28;20114;-81
2022/08/24 01:38:03;;;;;;;3.22;1.50;;;18.60;68.90;;;;;;5035916;28;20029;-81
2022/08/24 01:40:34;;;;;;;4.72;1.52;;;18.60;68.80;;;;;;5042306;28;20087;-82
2022/08/24 01:43:02;;;;;;;6.32;1.70;;;18.60;68.90;;;;;;5050121;28;20032;-82
2022/08/24 01:45:29;;;;;;;7.75;1.83;;;18.60;69.20;;;;;;5043080;28;20050;-81
2022/08/24 01:47:57;;;;;;;3.50;1.60;;;18.50;69.30;;;;;;5035659;28;20029;-81
2022/08/24 01:50:23;;;;;;;3.05;1.40;;;18.50;69.50;;;;;;5015545;28;20049;-81
2022/08/24 01:52:51;;;;;;;6.15;1.80;;;18.50;69.90;;;;;;5030195;28;20018;-81
2022/08/24 01:55:17;;;;;;;4.10;1.50;;;18.50;70.10;;;;;;5027270;28;20503;-82
2022/08/24 01:57:43;;;;;;;3.42;1.45;;;18.40;69.80;;;;;;5039718;28;20045;-84
2022/08/24 02:00:13;;;;;;;5.85;1.80;;;18.40;70.20;;;;;;5036368;28;20068;-82
2022/08/24 02:02:40;;;;;;;3.88;1.77;;;18.40;70.30;;;;;;5034747;28;20025;-84
2022/08/24 02:05:06;;;;;;;2.70;1.40;;;18.40;70.40;;;;;;5041737;28;20034;-81
2022/08/24 02:07:32;;;;;;;9.35;1.65;;;18.30;70.60;;;;;;5041423;28;20029;-82
2022/08/24 02:09:57;;;;;;;8.43;1.70;;;18.40;70.40;;;;;;5043353;28;20036;-82
2022/08/24 02:12:23;;;;;;;2.50;1.67;;;18.30;70.60;;;;;;5038398;28;20038;-82
2022/08/24 02:14:49;;;;;;;5.10;1.60;;;18.20;70.90;;;;;;5046844;28;20021;-82
2022/08/24 02:17:15;;;;;;;5.25;1.55;;;18.20;71.00;;;;;;5041526;28;20042;-82
2022/08/24 02:19:40;;;;;;;4.65;1.70;;;18.20;71.40;;;;;;5040910;28;20026;-82
2022/08/24 02:22:06;;;;;;;4.40;1.50;;;18.20;71.50;;;;;;5039070;28;20037;-83
2022/08/24 02:24:32;;;;;;;6.78;1.83;;;18.10;71.70;;;;;;5043155;28;20028;-82
2022/08/24 02:26:58;;;;;;;4.75;1.55;;;18.10;71.90;;;;;;5039081;28;20021;-82
2022/08/24 02:29:26;;;;;;;3.72;1.48;;;18.10;72.00;;;;;;5039578;28;20040;-82
2022/08/24 02:31:51;;;;;;;3.10;1.23;;;18.10;72.10;;;;;;5041313;28;20117;-82
2022/08/24 02:34:17;;;;;;;4.80;1.95;;;18.20;72.10;;;;;;5033325;28;20073;-82
2022/08/24 02:36:42;;;;;;;4.38;1.80;;;18.10;72.20;;;;;;5052585;28;20034;-82
2022/08/24 02:39:08;;;;;;;5.55;1.50;;;18.20;72.40;;;;;;5037163;28;20038;-82
2022/08/24 02:41:36;;;;;;;3.67;1.80;;;18.10;72.50;;;;;;5032410;28;20021;-82
2022/08/24 02:44:02;;;;;;;3.72;1.50;;;18.10;72.70;;;;;;5037160;28;20088;-82
2022/08/24 02:46:29;;;;;;;4.50;2.08;;;18.10;72.80;;;;;;5043102;28;20397;-82
2022/08/24 02:48:58;;;;;;;5.13;1.80;;;18.00;73.20;;;;;;5040443;28;20022;-82
2022/08/24 02:51:33;;;;;;;3.53;1.70;;;18.10;73.20;;;;;;5033279;28;20022;-82
2022/08/24 02:54:01;;;;;;;4.30;1.75;;;18.10;73.30;;;;;;5035817;28;20029;-82
2022/08/24 02:56:28;;;;;;;3.45;1.48;;;18.00;73.30;;;;;;5041983;28;20034;-82
2022/08/24 02:58:58;;;;;;;3.55;1.45;;;18.00;73.80;;;;;;5036572;28;20029;-82
2022/08/24 03:01:25;;;;;;;3.35;1.50;;;18.00;74.00;;;;;;5040710;28;20026;-82
2022/08/24 03:03:50;;;;;;;7.80;1.88;;;18.00;74.00;;;;;;5039338;28;20052;-82
2022/08/24 03:06:17;;;;;;;3.65;1.67;;;17.90;74.50;;;;;;5042325;28;20045;-82
2022/08/24 03:08:43;;;;;;;5.18;2.08;;;17.80;74.50;;;;;;5043112;28;20030;-82
2022/08/24 03:11:09;;;;;;;5.22;2.05;;;17.80;74.60;;;;;;5039579;28;20022;-82
2022/08/24 03:13:35;;;;;;;3.00;1.67;;;17.80;74.70;;;;;;5044528;28;20028;-82
2022/08/24 03:16:01;;;;;;;7.00;1.80;;;17.70;75.10;;;;;;5045250;28;20038;-82
2022/08/24 03:18:27;;;;;;;3.53;1.60;;;17.60;75.20;;;;;;5046479;28;20040;-82
2022/08/24 03:20:54;;;;;;;6.63;1.80;;;17.60;75.50;;;;;;5042714;28;20436;-83
2022/08/24 03:23:20;;;;;;;4.70;1.77;;;17.50;75.70;;;;;;5043136;28;20037;-82
2022/08/24 03:25:45;;;;;;;4.47;1.77;;;17.50;75.90;;;;;;5043438;28;20654;-81
2022/08/24 03:28:11;;;;;;;4.32;2.10;;;17.50;76.20;;;;;;5034772;28;20034;-82
2022/08/24 03:30:38;;;;;;;5.25;1.90;;;17.50;76.30;;;;;;5044576;28;20033;-82
2022/08/24 03:33:04;;;;;;;5.40;1.83;;;17.50;76.60;;;;;;5045697;28;20032;-82
2022/08/24 03:35:30;;;;;;;4.38;1.58;;;17.50;76.70;;;;;;5040272;28;20037;-82
2022/08/24 03:37:56;;;;;;;3.47;1.90;;;17.40;76.90;;;;;;5043472;28;20021;-81
2022/08/24 03:40:22;;;;;;;4.88;1.80;;;17.30;77.00;;;;;;5043074;28;20608;-81
2022/08/24 03:42:48;;;;;;;4.25;1.67;;;17.30;77.20;;;;;;5038258;28;20021;-82
2022/08/24 03:45:14;;;;;;;2.58;1.73;;;17.30;77.30;;;;;;5041665;28;20509;-82
2022/08/24 03:47:40;;;;;;;7.20;2.03;;;17.20;77.80;;;;;;5042205;28;20037;-82
2022/08/24 03:50:07;;;;;;;4.22;1.90;;;17.20;78.10;;;;;;5037107;28;20040;-82
2022/08/24 03:52:34;;;;;;;6.35;1.75;;;17.20;78.10;;;;;;5036283;28;20026;-82
2022/08/24 03:55:00;;;;;;;3.42;1.88;;;17.10;78.20;;;;;;5038171;28;20106;-82
2022/08/24 03:57:25;;;;;;;4.15;1.65;;;17.10;78.40;;;;;;5034572;28;20489;-82
2022/08/24 03:59:51;;;;;;;7.00;2.10;;;17.10;78.60;;;;;;5033781;28;20044;-82
2022/08/24 04:02:16;;;;;;;3.60;2.08;;;17.10;78.80;;;;;;5042881;28;20029;-83
2022/08/24 04:04:42;;;;;;;3.92;2.17;;;17.00;79.00;;;;;;5042902;28;20038;-82
2022/08/24 04:07:07;;;;;;;5.18;2.30;;;17.00;79.30;;;;;;5043369;28;20029;-82
2022/08/24 04:09:33;;;;;;;4.72;1.92;;;17.00;79.30;;;;;;5034935;28;20029;-81
2022/08/24 04:11:59;;;;;;;8.00;1.83;;;17.00;79.60;;;;;;5037637;28;20543;-81
2022/08/24 04:14:24;;;;;;;7.20;2.17;;;17.00;79.70;;;;;;5032787;28;20726;-81
2022/08/24 04:16:50;;;;;;;7.22;2.22;;;16.90;79.90;;;;;;5035635;28;20025;-80
2022/08/24 04:19:15;;;;;;;7.00;2.10;;;16.90;80.10;;;;;;5027631;28;20038;-81
2022/08/24 04:21:43;;;;;;;4.72;2.10;;;16.90;80.00;;;;;;5034261;28;20040;-80
2022/08/24 04:24:10;;;;;;;4.82;2.33;;;16.90;80.20;;;;;;5032937;28;20030;-80
2022/08/24 04:26:37;;;;;;;4.43;2.20;;;16.90;80.50;;;;;;5035230;28;20009;-80
2022/08/24 04:29:10;;;;;;;6.18;2.28;;;16.90;80.40;;;;;;5031874;28;20033;-80
2022/08/24 04:31:37;;;;;;;5.40;2.20;;;16.90;80.60;;;;;;5031378;28;20033;-80
2022/08/24 04:34:03;;;;;;;5.78;1.80;;;16.80;80.60;;;;;;5029235;28;20056;-80
2022/08/24 04:36:29;;;;;;;5.35;2.60;;;16.80;80.90;;;;;;5032749;28;20935;-81
2022/08/24 04:38:54;;;;;;;4.18;2.20;;;16.80;81.30;;;;;;5026155;28;20124;-79
2022/08/24 04:41:20;;;;;;;5.03;2.13;;;16.80;81.30;;;;;;5023221;28;20108;-79
2022/08/24 04:43:47;;;;;;;6.45;2.30;;;16.80;81.50;;;;;;5033489;28;20191;-80
2022/08/24 04:46:15;;;;;;;6.65;2.25;;;16.80;81.60;;;;;;5034333;28;20041;-80
2022/08/24 04:48:44;;;;;;;4.78;2.35;;;16.90;81.60;;;;;;5058048;28;20573;-80
2022/08/24 04:51:11;;;;;;;8.40;2.67;;;16.90;81.60;;;;;;5039855;28;20059;-80
2022/08/24 04:53:37;;;;;;;4.10;1.90;;;17.00;81.40;;;;;;5035255;28;20108;-81
2022/08/24 04:56:07;;;;;;;5.25;2.03;;;17.00;81.40;;;;;;5034707;28;20429;-81
2022/08/24 04:58:33;;;;;;;5.75;2.00;;;17.00;81.50;;;;;;5026337;28;20036;-80
2022/08/24 05:00:59;;;;;;;4.75;2.40;;;17.00;81.70;;;;;;5043287;28;20042;-80
2022/08/24 05:03:24;;;;;;;8.45;2.10;;;17.10;81.50;;;;;;5038510;28;20029;-81
2022/08/24 05:05:50;;;;;;;5.88;2.65;;;17.00;81.70;;;;;;5037800;28;20030;-80
2022/08/24 05:08:18;;;;;;;6.15;2.35;;;17.10;81.80;;;;;;5051215;28;20262;-80
2022/08/24 05:10:46;;;;;;;5.03;2.22;;;17.10;81.80;;;;;;5038074;28;20029;-80
2022/08/24 05:13:12;;;;;;;5.07;2.15;;;17.20;81.70;;;;;;5035680;28;20035;-80
2022/08/24 05:15:43;;;;;;;6.25;2.30;;;17.20;81.70;;;;;;5038447;28;20105;-82
2022/08/24 05:18:10;;;;;;;6.10;2.22;;;17.30;81.70;;;;;;5033928;28;20068;-80
2022/08/24 05:20:40;;;;;;;7.10;2.47;;;17.30;81.60;;;;;;5030624;28;20652;-80
2022/08/24 05:23:06;;;;;;;4.70;2.20;;;17.30;81.40;;;;;;5032174;28;20025;-80
2022/08/24 05:25:32;;;;;;;4.65;2.33;;;17.40;81.40;;;;;;5025179;28;20111;-82
2022/08/24 05:27:57;;;;;;;5.10;2.20;;;17.40;81.30;;;;;;5025433;28;20481;-81
2022/08/24 05:30:23;;;;;;;7.75;2.55;;;17.50;81.40;;;;;;5046032;28;20018;-80
2022/08/24 05:32:48;;;;;;;5.97;2.28;;;17.50;81.50;;;;;;5027514;28;20460;-81
2022/08/24 05:35:14;;;;;;;4.13;2.45;;;17.50;81.60;;;;;;5027364;28;20068;-81
2022/08/24 05:37:41;;;;;;;5.55;2.33;;;17.50;81.10;;;;;;5031339;28;20059;-81
2022/08/24 05:40:10;;;;;;;4.80;2.20;;;17.60;80.90;;;;;;5031529;28;20126;-81
2022/08/24 05:42:36;;;;;;;4.78;2.33;;;17.70;80.80;;;;;;5033398;28;20040;-81
2022/08/24 05:45:03;;;;;;;5.30;2.38;;;17.70;80.80;;;;;;5028412;28;20026;-81
2022/08/24 05:47:28;;;;;;;6.50;2.50;;;17.80;80.80;;;;;;5029569;28;20044;-81
2022/08/24 05:49:54;;;;;;;6.03;2.42;;;17.80;80.50;;;;;;5043520;28;20030;-81
2022/08/24 05:52:21;;;;;;;5.82;2.70;;;17.80;80.60;;;;;;5033080;28;20037;-81
2022/08/24 05:54:57;;;;;;;4.65;2.33;;;17.90;80.60;;;;;;5028392;28;20040;-81
2022/08/24 05:57:25;;;;;;;7.25;2.38;;;18.00;80.50;;;;;;5044432;28;20025;-81
2022/08/24 05:59:51;;;;;;;5.78;2.85;;;18.00;80.20;;;;;;5036098;28;20045;-81
2022/08/24 06:02:18;;;;;;;6.40;2.47;;;18.10;79.90;;;;;;5028903;28;20036;-82
2022/08/24 06:04:43;;;;;;;8.88;2.90;;;18.20;79.90;;;;;;5031574;28;20531;-81
2022/08/24 06:07:10;;;;;;;6.05;2.22;;;18.30;79.60;;;;;;5032740;28;20026;-82
2022/08/24 06:09:36;;;;;;;6.32;2.38;;;18.40;79.20;;;;;;5025935;28;20123;-82
2022/08/24 06:12:02;;;;;;;5.22;2.65;;;18.40;79.10;;;;;;5024991;28;20034;-81
2022/08/24 06:14:28;;;;;;;7.00;2.47;;;18.50;79.20;;;;;;5028562;28;20040;-81
2022/08/24 06:16:53;;;;;;;4.47;2.38;;;18.60;79.10;;;;;;5029852;28;20034;-81
2022/08/24 06:19:19;;;;;;;5.60;2.58;;;18.70;78.90;;;;;;5033227;28;20037;-81
2022/08/24 06:21:47;;;;;;;3.95;2.65;;;18.70;78.50;;;;;;5031661;28;20060;-82
2022/08/24 06:24:14;;;;;;;7.55;2.42;;;18.80;77.90;;;;;;5023884;28;20144;-81
2022/08/24 06:29:25;;;;;;;6.80;2.25;;;19.00;77.50;;;;;;5032161;28;20089;-81
2022/08/24 06:31:50;;;;;;;3.13;2.10;;;19.00;77.20;;;;;;5032184;28;20109;-82
2022/08/24 06:34:17;;;;;;;4.90;2.20;;;19.10;76.90;;;;;;5032544;28;20033;-81
2022/08/24 06:36:44;;;;;;;3.90;2.30;;;19.30;76.70;;;;;;5032792;28;20458;-81
2022/08/24 06:39:09;;;;;;;4.40;2.47;;;19.40;76.60;;;;;;5022624;28;20034;-81
2022/08/24 06:41:39;;;;;;;6.32;2.20;;;19.50;76.30;;;;;;5026281;28;20013;-81
2022/08/24 06:44:06;;;;;;;5.93;2.40;;;19.60;76.90;;;;;;5028483;28;20600;-81
2022/08/24 06:46:32;;;;;;;4.72;1.98;;;19.60;76.10;;;;;;5038498;28;20128;-82
2022/08/24 06:48:57;;;;;;;9.27;2.83;;;19.80;75.90;;;;;;5030704;28;20021;-81
2022/08/24 06:51:24;;;;;;;6.60;2.17;;;19.80;74.70;;;;;;5032523;28;20485;-81
2022/08/24 06:53:50;;;;;;;4.72;2.33;;;20.00;75.30;;;;;;5033080;28;20033;-81
2022/08/24 06:56:16;;;;;;;4.95;2.28;;;20.00;75.50;;;;;;5033152;28;20029;-82
2022/08/24 06:58:42;;;;;;;6.60;2.30;;;20.10;74.60;;;;;;5030436;28;20211;-82
2022/08/24 07:01:16;;;;;;;6.95;2.50;;;20.20;74.00;;;;;;5029404;28;20025;-82
2022/08/24 07:03:43;;;;;;;6.18;2.40;;;20.30;73.90;;;;;;5032698;28;20047;-81
2022/08/24 07:06:11;;;;;;;6.40;2.45;;;20.30;74.20;;;;;;5027358;28;20034;-82
2022/08/24 07:08:37;;;;;;;5.57;2.40;;;20.50;74.10;;;;;;5030142;28;20025;-81
2022/08/24 07:11:04;;;;;;;6.20;2.55;;;20.50;73.20;;;;;;5031754;28;20481;-82
2022/08/24 07:13:30;;;;;;;3.92;2.30;;;20.70;73.00;;;;;;5020787;28;20029;-82
2022/08/24 07:15:56;;;;;;;7.82;2.63;;;20.80;72.70;;;;;;5023208;28;20034;-81
2022/08/24 07:18:23;;;;;;;6.38;2.47;;;21.00;72.00;;;;;;5030764;28;20037;-82
2022/08/24 07:20:49;;;;;;;7.18;2.53;;;21.10;71.40;;;;;;5027992;28;20032;-81
2022/08/24 07:23:16;;;;;;;6.15;3.00;;;21.20;71.80;;;;;;5019100;28;20078;-82
2022/08/24 07:25:43;;;;;;;6.93;2.60;;;21.30;71.10;;;;;;5020615;28;20026;-82
2022/08/24 07:28:10;;;;;;;5.10;2.47;;;21.40;70.80;;;;;;5032316;28;20030;-81
2022/08/24 07:30:36;;;;;;;6.65;2.33;;;21.50;70.60;;;;;;5030479;28;20487;-82
2022/08/24 07:33:02;;;;;;;4.40;2.20;;;21.60;70.50;;;;;;5033018;28;20018;-82
2022/08/24 07:35:30;;;;;;;5.20;2.30;;;21.90;69.70;;;;;;5029962;28;20083;-81
2022/08/24 07:37:55;;;;;;;5.88;2.45;;;22.00;69.70;;;;;;5030993;28;20052;-82
2022/08/24 07:40:22;;;;;;;6.45;2.53;;;22.10;68.00;;;;;;5030666;28;20029;-81
2022/08/24 07:42:49;;;;;;;3.72;2.30;;;22.20;68.00;;;;;;5030793;28;20028;-82
2022/08/24 07:45:15;;;;;;;6.88;2.60;;;22.50;67.60;;;;;;5029883;28;20084;-82
2022/08/24 07:47:42;;;;;;;3.67;2.20;;;22.50;67.40;;;;;;5032370;28;20021;-82
2022/08/24 07:50:08;;;;;;;4.88;2.33;;;22.70;67.40;;;;;;5030502;28;20028;-82
2022/08/24 07:52:34;;;;;;;4.13;2.05;;;22.90;65.50;;;;;;5023431;28;20026;-82
2022/08/24 07:55:00;;;;;;;8.07;2.40;;;22.90;65.10;;;;;;5026775;28;20506;-81
2022/08/24 07:57:26;;;;;;;6.30;2.45;;;23.10;64.90;;;;;;5035873;28;20033;-83
2022/08/24 07:59:51;;;;;;;5.28;2.40;;;23.20;64.60;;;;;;5037919;28;20543;-83
2022/08/24 08:02:17;;;;;;;4.03;2.10;;;23.50;64.50;;;;;;5036323;28;20025;-83
2022/08/24 08:04:42;;;;;;;5.78;2.58;;;23.70;62.70;;;;;;5035152;28;20025;-83
2022/08/24 08:07:08;;;;;;;4.13;2.38;;;23.80;61.50;;;;;;5037658;28;20110;-83
2022/08/24 08:09:37;;;;;;;7.65;2.53;;;23.90;62.00;;;;;;5033580;28;20488;-84
2022/08/24 08:12:03;;;;;;;6.70;2.55;;;24.10;62.50;;;;;;5038218;28;20560;-85
2022/08/24 08:14:29;;;;;;;4.40;2.28;;;24.30;62.00;;;;;;5034096;28;20049;-85
2022/08/24 08:16:55;;;;;;;5.55;2.05;;;24.60;61.50;;;;;;5036651;28;20083;-84
2022/08/24 08:19:20;;;;;;;7.05;1.95;;;24.60;60.80;;;;;;5033960;28;20095;-84
2022/08/24 08:24:33;;;;;;;3.65;1.90;;;25.00;57.10;;;;;;5034681;28;20067;-86
2022/08/24 08:26:59;;;;;;;4.68;2.10;;;25.00;57.20;;;;;;5034418;28;20044;-85
2022/08/24 08:29:26;;;;;;;5.75;1.90;;;25.00;57.20;;;;;;5046366;28;20017;-85
2022/08/24 08:31:51;;;;;;;6.35;1.70;;;25.00;56.70;;;;;;5037081;28;20078;-85
2022/08/24 08:34:17;;;;;;;4.38;2.00;;;25.10;56.00;;;;;;5034188;28;20691;-84
2022/08/24 08:36:44;;;;;;;3.58;2.10;;;25.50;56.20;;;;;;5035293;28;20033;-84
2022/08/24 08:39:12;;;;;;;5.22;2.10;;;25.50;54.60;;;;;;5026956;28;20388;-84
2022/08/24 08:41:53;;;;;;;8.90;2.08;;;25.60;53.70;;;;;;5035740;28;20030;-83
2022/08/24 08:44:42;;;;;;;4.35;1.90;;;25.70;53.80;;;;;;5033588;28;20104;-83
2022/08/24 08:47:36;;;;;;;3.38;1.80;;;25.70;53.90;;;;;;5041547;28;20041;-84
2022/08/24 08:50:18;;;;;;;4.43;1.42;;;26.10;54.50;;;;;;5030700;28;20026;-83
2022/08/24 08:53:29;;;;;;;10.02;2.00;;;26.30;52.80;;;;;;5028359;28;20141;-83
2022/08/24 08:56:14;;;;;;;4.13;1.83;;;26.10;52.70;;;;;;5026214;28;20029;-83
2022/08/24 08:59:01;;;;;;;5.97;2.08;;;26.20;52.70;;;;;;5035448;28;20132;-84
2022/08/24 09:01:43;;;;;;;5.68;1.73;;;25.90;52.70;;;;;;5034522;28;20037;-85
2022/08/24 09:04:28;;;;;;;4.55;1.65;;;26.20;53.80;;;;;;5035219;28;20025;-83
2022/08/24 09:07:15;;;;;;;2.97;1.52;;;26.40;52.60;;;;;;5027448;28;20006;-84
2022/08/24 09:10:01;;;;;;;3.10;1.60;;;26.50;51.80;;;;;;5021688;28;20018;-84
2022/08/24 09:12:49;;;;;;;9.18;2.67;;;26.70;50.30;;;;;;5033904;28;20025;-83
2022/08/24 09:15:47;;;;;;;2.45;1.50;;;26.50;50.60;;;;;;5033027;28;20029;-83
2022/08/24 09:18:31;;;;;;;4.10;1.85;;;26.70;51.70;;;;;;5034391;28;20029;-82
2022/08/24 09:21:31;;;;;;;3.42;1.45;;;27.10;49.50;;;;;;5032718;28;20072;-84
2022/08/24 09:24:32;;;;;;;4.70;1.67;;;27.40;50.60;;;;;;5027326;28;20026;-83
2022/08/24 09:27:23;;;;;;;6.25;1.60;;;27.70;48.60;;;;;;5033826;28;20109;-84
2022/08/24 09:30:04;;;;;;;3.30;1.50;;;27.60;46.50;;;;;;5015882;28;20829;-84
2022/08/24 09:32:36;;;;;;;6.40;1.48;;;27.90;47.60;;;;;;5026543;28;20041;-84
2022/08/24 09:35:05;;;;;;;4.65;1.60;;;28.10;45.40;;;;;;5033546;28;20098;-83
2022/08/24 09:38:03;;;;;;;3.00;1.50;;;27.90;46.30;;;;;;5035449;28;20040;-83
2022/08/24 09:41:03;;;;;;;4.03;1.33;;;27.70;46.60;;;;;;5022960;28;20026;-84
2022/08/24 09:43:51;;;;;;;3.95;1.70;;;27.90;46.60;;;;;;5021469;28;20091;-84
2022/08/24 09:47:04;;;;;;;4.72;1.75;;;27.60;46.60;;;;;;5031705;28;20133;-84
2022/08/24 09:49:39;;;;;;;3.70;1.92;;;28.20;44.90;;;;;;5033688;28;20037;-84
2022/08/24 09:52:17;;;;;;;3.90;1.65;;;28.40;44.70;;;;;;5031445;28;20871;-84
2022/08/24 09:55:14;;;;;;;4.30;1.55;;;28.40;44.80;;;;;;5026009;28;20017;-84
2022/08/24 09:57:43;;;;;;;3.92;1.33;;;28.50;43.30;;;;;;5027370;28;20040;-84
2022/08/24 10:00:39;;;;;;;6.05;1.77;;;28.80;44.50;;;;;;5033623;28;20034;-84
2022/08/24 10:03:26;;;;;;;2.72;1.35;;;28.80;42.60;;;;;;5033250;28;20030;-83
2022/08/24 10:06:22;;;;;;;4.47;1.63;;;28.90;43.80;;;;;;5033485;28;20079;-84
2022/08/24 10:09:01;;;;;;;4.03;1.40;;;29.10;43.20;;;;;;5032338;28;20024;-84
2022/08/24 10:12:05;;;;;;;4.28;1.50;;;29.20;42.70;;;;;;5033289;28;20056;-83
2022/08/24 10:14:47;;;;;;;2.22;1.35;;;29.50;43.90;;;;;;5034453;28;20101;-83
2022/08/24 10:17:31;;;;;;;4.18;1.48;;;29.20;42.10;;;;;;5037199;28;20123;-84
2022/08/24 10:20:04;;;;;;;2.30;1.35;;;29.20;43.20;;;;;;5034831;28;20089;-83
2022/08/24 10:22:39;;;;;;;4.35;1.52;;;29.00;43.80;;;;;;5034136;28;20025;-84
2022/08/24 10:25:17;;;;;;;4.18;1.15;;;29.30;42.40;;;;;;5024013;28;20052;-84
2022/08/24 10:28:09;;;;;;;6.95;1.92;;;29.60;42.70;;;;;;5033060;28;20039;-84
2022/08/24 10:31:02;;;;;;;4.63;1.33;;;29.60;42.40;;;;;;5035485;28;20036;-83
2022/08/24 10:33:37;;;;;;;4.43;1.42;;;29.50;41.20;;;;;;5035137;28;20028;-83
2022/08/24 10:36:28;;;;;;;2.67;1.40;;;29.50;42.00;;;;;;5030129;28;20029;-83
2022/08/24 10:39:42;;;;;;;10.38;1.50;;;29.50;41.70;;;;;;5034633;28;20441;-83
2022/08/24 10:45:41;;;;;;;3.33;1.52;;;30.20;40.50;;;;;;5036668;28;20057;-83
2022/08/24 10:48:33;;;;;;;7.43;1.60;;;30.30;40.40;;;;;;5032334;28;20025;-84
2022/08/24 10:51:17;;;;;;;4.55;1.70;;;30.60;39.90;;;;;;5016028;28;20473;-83
2022/08/24 10:53:51;;;;;;;2.83;1.50;;;30.90;40.40;;;;;;5033490;28;20117;-84
2022/08/24 10:56:31;;;;;;;3.58;1.25;;;31.00;39.40;;;;;;5033694;28;20048;-84
2022/08/24 10:59:21;;;;;;;5.33;1.30;;;31.20;39.90;;;;;;5029774;28;20068;-83
2022/08/24 11:02:01;;;;;;;7.28;1.15;;;30.90;39.10;;;;;;5021980;28;20057;-84
2022/08/24 11:04:29;;;;;;;5.97;1.40;;;31.20;39.10;;;;;;5032483;28;20033;-84
2022/08/24 11:07:13;;;;;;;1.10;0.95;;;31.20;38.30;;;;;;5035103;28;20024;-84
2022/08/24 11:10:00;;;;;;;2.75;1.30;;;31.60;36.60;;;;;;5032308;28;20487;-84
2022/08/24 11:12:32;;;;;;;4.07;1.40;;;31.60;36.90;;;;;;5034580;28;20421;-85
2022/08/24 11:15:01;;;;;;;3.28;1.25;;;32.00;36.90;;;;;;5032324;28;20140;-84
2022/08/24 11:17:29;;;;;;;3.53;1.40;;;31.70;37.20;;;;;;5027685;28;20497;-84
2022/08/24 11:19:57;;;;;;;2.63;1.05;;;32.00;36.80;;;;;;5029814;28;20026;-84
2022/08/24 11:22:55;;;;;;;3.38;1.20;;;32.30;36.80;;;;;;5033883;28;20014;-84
2022/08/24 11:25:26;;;;;;;3.10;1.25;;;32.00;37.50;;;;;;5033957;28;20030;-84
2022/08/24 11:28:01;;;;;;;3.22;1.23;;;31.30;36.00;;;;;;5032712;28;20052;-84
2022/08/24 11:30:28;;;;;;;5.57;1.25;;;31.50;37.30;;;;;;5035075;28;20026;-84
2022/08/24 11:32:57;;;;;;;2.25;1.30;;;32.10;35.30;;;;;;5037276;28;20099;-84
2022/08/24 11:35:32;;;;;;;3.60;1.13;;;32.10;35.60;;;;;;5036537;28;20027;-84
2022/08/24 11:38:20;;;;;;;3.42;1.42;;;32.50;35.10;;;;;;5044768;28;20049;-84
2022/08/24 11:41:05;;;;;;;4.65;1.08;;;32.10;36.30;;;;;;5028005;28;20103;-84
2022/08/24 11:43:45;;;;;;;5.45;1.23;;;32.20;35.30;;;;;;5033813;28;20409;-84
2022/08/24 11:46:30;;;;;;;4.03;1.20;;;32.90;35.90;;;;;;5037734;28;20116;-84
2022/08/24 11:49:11;;;;;;;3.92;1.38;;;33.20;35.30;;;;;;5031360;28;20350;-84
2022/08/24 11:51:47;;;;;;;6.78;1.23;;;32.90;34.10;;;;;;5036213;28;20076;-85
2022/08/24 11:54:23;;;;;;;4.80;1.27;;;33.50;33.80;;;;;;5062590;28;20060;-84
2022/08/24 11:57:06;;;;;;;4.93;1.40;;;32.90;33.40;;;;;;5033657;28;20075;-84
2022/08/24 11:59:44;;;;;;;3.90;1.33;;;33.70;31.90;;;;;;5023828;28;20035;-84
2022/08/24 12:02:19;;;;;;;3.47;1.20;;;33.30;33.30;;;;;;5037075;28;20072;-84
2022/08/24 12:05:14;;;;;;;2.17;1.10;;;33.50;32.30;;;;;;5035086;28;20057;-85
2022/08/24 12:08:01;;;;;;;3.92;1.20;;;33.60;32.30;;;;;;5036644;28;20111;-84
2022/08/24 12:10:29;;;;;;;3.72;1.23;;;33.80;32.80;;;;;;5035267;28;20040;-84
2022/08/24 12:13:26;;;;;;;2.70;1.40;;;33.70;32.70;;;;;;5031865;28;20033;-85
2022/08/24 12:16:11;;;;;;;4.38;1.33;;;34.10;31.20;;;;;;5029018;28;20041;-84
2022/08/24 12:18:52;;;;;;;5.60;1.50;;;33.60;30.90;;;;;;5036413;28;20029;-85
2022/08/24 12:21:22;;;;;;;2.78;1.17;;;34.50;31.10;;;;;;5025677;28;20022;-84
2022/08/24 12:24:02;;;;;;;3.92;1.55;;;33.90;31.40;;;;;;5034631;28;20109;-84
2022/08/24 12:26:39;;;;;;;1.95;0.93;;;34.10;32.00;;;;;;5033226;28;20397;-84
2022/08/24 12:29:43;;;;;;;2.70;1.17;;;34.20;30.10;;;;;;5035474;28;20413;-85
2022/08/24 12:32:11;;;;;;;3.83;1.00;;;34.90;30.10;;;;;;4974212;28;20109;-84
2022/08/24 12:35:01;;;;;;;3.97;1.33;;;34.70;30.10;;;;;;5029080;28;20049;-85
2022/08/24 12:37:35;;;;;;;4.93;1.52;;;35.20;30.00;;;;;;5029526;28;20041;-85
2022/08/24 12:40:22;;;;;;;4.63;1.35;;;35.00;30.30;;;;;;5024568;28;20040;-84
2022/08/24 12:43:10;;;;;;;3.10;1.45;;;34.90;29.30;;;;;;5032420;28;20075;-85
2022/08/24 12:45:36;;;;;;;2.05;1.20;;;33.90;30.70;;;;;;5032290;28;20076;-85
2022/08/24 12:48:04;;;;;;;4.50;1.40;;;34.80;31.40;;;;;;5036173;28;20013;-85
2022/08/24 12:50:43;;;;;;;5.63;1.27;;;35.20;30.90;;;;;;5023485;28;20079;-84
2022/08/24 12:53:33;;;;;;;5.15;1.20;;;35.80;29.20;;;;;;5033572;28;20155;-85
2022/08/24 12:56:33;;;;;;;4.38;1.40;;;35.60;29.40;;;;;;5030877;28;20037;-85
2022/08/24 12:59:11;;;;;;;5.18;1.40;;;36.40;29.50;;;;;;5026234;28;20033;-85
2022/08/24 13:01:55;;;;;;;3.85;1.30;;;36.10;29.80;;;;;;5027396;28;20040;-85
2022/08/24 13:04:26;;;;;;;2.58;1.20;;;36.10;28.60;;;;;;5032711;28;20060;-85
2022/08/24 13:07:05;;;;;;;3.63;1.45;;;35.60;29.30;;;;;;5031123;28;20407;-84
2022/08/24 13:09:38;;;;;;;75.40;19.83;;;35.90;27.70;;;;;;5032671;28;20562;-85
2022/08/24 13:12:29;;;;;;;4.25;1.50;;;36.00;29.20;;;;;;5036306;28;20100;-85
2022/08/24 13:15:17;;;;;;;6.65;1.27;;;37.00;28.30;;;;;;5033952;28;20548;-85
2022/08/24 13:17:43;;;;;;;4.63;1.30;;;36.60;27.40;;;;;;5032113;28;20026;-82
2022/08/24 13:20:41;;;;;;;2.92;1.30;;;36.30;27.80;;;;;;5029322;28;20405;-87
2022/08/24 13:23:09;;;;;;;3.78;1.23;;;36.30;28.20;;;;;;5018625;28;20440;-82